sensor_id;sensor_type;location;lat;lon;timestamp;P1;durP1;ratioP1;P2;durP2;ratioP2
74543;SDS011;63016;55.030;38.710;2023-09-19T00:01:14;22.30;;;9.15;;
74543;SDS011;63016;55.030;38.710;2023-09-19T00:03:40;25.13;;;9.20;;
74543;SDS011;63016;55.030;38.710;2023-09-19T00:06:07;41.30;;;12.30;;
74543;SDS011;63016;55.030;38.710;2023-09-19T00:08:35;35.65;;;12.85;;
74543;SDS011;63016;55.030;38.710;2023-09-19T00:11:01;30.02;;;12.00;;
74543;SDS011;63016;55.030;38.710;2023-09-19T00:13:33;33.28;;;12.93;;
74543;SDS011;63016;55.030;38.710;2023-09-19T00:16:01;34.13;;;14.48;;
74543;SDS011;63016;55.030;38.710;2023-09-19T00:18:33;36.25;;;14.57;;
74543;SDS011;63016;55.030;38.710;2023-09-19T00:21:00;36.38;;;14.73;;
74543;SDS011;63016;55.030;38.710;2023-09-19T00:23:25;34.15;;;14.15;;
74543;SDS011;63016;55.030;38.710;2023-09-19T00:25:52;27.40;;;12.57;;
74543;SDS011;63016;55.030;38.710;2023-09-19T00:28:17;33.78;;;14.90;;
74543;SDS011;63016;55.030;38.710;2023-09-19T00:30:44;30.27;;;13.95;;
74543;SDS011;63016;55.030;38.710;2023-09-19T00:33:10;31.63;;;13.13;;
74543;SDS011;63016;55.030;38.710;2023-09-19T00:35:46;30.08;;;13.10;;
74543;SDS011;63016;55.030;38.710;2023-09-19T00:38:18;36.75;;;14.13;;
74543;SDS011;63016;55.030;38.710;2023-09-19T00:40:47;39.35;;;15.30;;
74543;SDS011;63016;55.030;38.710;2023-09-19T00:43:14;29.90;;;14.25;;
74543;SDS011;63016;55.030;38.710;2023-09-19T00:45:42;34.60;;;15.68;;
74543;SDS011;63016;55.030;38.710;2023-09-19T00:48:09;38.22;;;16.10;;
74543;SDS011;63016;55.030;38.710;2023-09-19T00:50:35;36.25;;;15.40;;
74543;SDS011;63016;55.030;38.710;2023-09-19T00:53:01;33.63;;;14.05;;
74543;SDS011;63016;55.030;38.710;2023-09-19T00:55:34;34.95;;;15.48;;
74543;SDS011;63016;55.030;38.710;2023-09-19T00:58:02;33.97;;;15.18;;
74543;SDS011;63016;55.030;38.710;2023-09-19T01:00:31;36.97;;;15.80;;
74543;SDS011;63016;55.030;38.710;2023-09-19T01:02:59;45.90;;;16.13;;
74543;SDS011;63016;55.030;38.710;2023-09-19T01:05:28;34.75;;;14.82;;
74543;SDS011;63016;55.030;38.710;2023-09-19T01:07:55;32.92;;;14.07;;
74543;SDS011;63016;55.030;38.710;2023-09-19T01:10:21;41.72;;;15.60;;
74543;SDS011;63016;55.030;38.710;2023-09-19T01:18:29;56.05;;;17.13;;
74543;SDS011;63016;55.030;38.710;2023-09-19T01:32:13;33.13;;;15.30;;
74543;SDS011;63016;55.030;38.710;2023-09-19T01:37:12;39.38;;;15.23;;
74543;SDS011;63016;55.030;38.710;2023-09-19T01:39:39;37.60;;;15.05;;
74543;SDS011;63016;55.030;38.710;2023-09-19T01:42:18;34.20;;;14.57;;
74543;SDS011;63016;55.030;38.710;2023-09-19T01:47:23;38.10;;;14.73;;
74543;SDS011;63016;55.030;38.710;2023-09-19T01:49:55;33.10;;;14.45;;
74543;SDS011;63016;55.030;38.710;2023-09-19T01:52:28;33.38;;;14.65;;
74543;SDS011;63016;55.030;38.710;2023-09-19T01:55:00;35.72;;;14.32;;
74543;SDS011;63016;55.030;38.710;2023-09-19T01:57:40;36.90;;;14.75;;
74543;SDS011;63016;55.030;38.710;2023-09-19T02:00:11;36.17;;;15.15;;
74543;SDS011;63016;55.030;38.710;2023-09-19T02:02:39;41.35;;;16.35;;
74543;SDS011;63016;55.030;38.710;2023-09-19T02:05:09;34.60;;;15.52;;
74543;SDS011;63016;55.030;38.710;2023-09-19T02:07:35;36.85;;;15.55;;
74543;SDS011;63016;55.030;38.710;2023-09-19T02:10:03;36.28;;;16.58;;
74543;SDS011;63016;55.030;38.710;2023-09-19T02:12:31;35.20;;;15.40;;
74543;SDS011;63016;55.030;38.710;2023-09-19T02:14:58;33.63;;;15.35;;
74543;SDS011;63016;55.030;38.710;2023-09-19T02:17:24;33.42;;;15.50;;
74543;SDS011;63016;55.030;38.710;2023-09-19T02:19:51;31.85;;;15.45;;
74543;SDS011;63016;55.030;38.710;2023-09-19T02:22:20;37.53;;;15.70;;
74543;SDS011;63016;55.030;38.710;2023-09-19T02:24:46;35.33;;;15.50;;
74543;SDS011;63016;55.030;38.710;2023-09-19T02:27:13;49.25;;;15.25;;
74543;SDS011;63016;55.030;38.710;2023-09-19T02:29:41;47.90;;;14.73;;
74543;SDS011;63016;55.030;38.710;2023-09-19T02:32:07;29.10;;;12.82;;
74543;SDS011;63016;55.030;38.710;2023-09-19T02:34:34;26.98;;;12.52;;
74543;SDS011;63016;55.030;38.710;2023-09-19T02:37:02;28.25;;;13.00;;
74543;SDS011;63016;55.030;38.710;2023-09-19T02:39:30;35.05;;;13.70;;
74543;SDS011;63016;55.030;38.710;2023-09-19T02:41:56;32.10;;;11.40;;
74543;SDS011;63016;55.030;38.710;2023-09-19T02:44:21;35.47;;;11.63;;
74543;SDS011;63016;55.030;38.710;2023-09-19T02:46:48;29.58;;;11.60;;
74543;SDS011;63016;55.030;38.710;2023-09-19T02:49:14;25.80;;;11.10;;
74543;SDS011;63016;55.030;38.710;2023-09-19T02:51:40;24.83;;;11.05;;
74543;SDS011;63016;55.030;38.710;2023-09-19T02:54:05;26.92;;;11.48;;
74543;SDS011;63016;55.030;38.710;2023-09-19T02:56:31;22.90;;;10.68;;
74543;SDS011;63016;55.030;38.710;2023-09-19T02:58:57;22.50;;;10.88;;
74543;SDS011;63016;55.030;38.710;2023-09-19T03:01:25;24.42;;;11.02;;
74543;SDS011;63016;55.030;38.710;2023-09-19T03:03:51;24.90;;;10.80;;
74543;SDS011;63016;55.030;38.710;2023-09-19T03:06:18;23.67;;;10.95;;
74543;SDS011;63016;55.030;38.710;2023-09-19T03:08:45;28.60;;;11.98;;
74543;SDS011;63016;55.030;38.710;2023-09-19T03:11:11;24.70;;;11.52;;
74543;SDS011;63016;55.030;38.710;2023-09-19T03:13:40;25.50;;;11.38;;
74543;SDS011;63016;55.030;38.710;2023-09-19T03:16:06;21.25;;;10.32;;
74543;SDS011;63016;55.030;38.710;2023-09-19T03:18:35;23.08;;;10.93;;
74543;SDS011;63016;55.030;38.710;2023-09-19T03:21:00;25.77;;;11.88;;
74543;SDS011;63016;55.030;38.710;2023-09-19T03:23:26;24.17;;;11.38;;
74543;SDS011;63016;55.030;38.710;2023-09-19T03:25:53;25.35;;;11.85;;
74543;SDS011;63016;55.030;38.710;2023-09-19T03:28:22;25.33;;;12.32;;
74543;SDS011;63016;55.030;38.710;2023-09-19T03:33:43;24.55;;;11.02;;
74543;SDS011;63016;55.030;38.710;2023-09-19T03:36:08;23.67;;;11.27;;
74543;SDS011;63016;55.030;38.710;2023-09-19T03:38:34;26.60;;;10.93;;
74543;SDS011;63016;55.030;38.710;2023-09-19T03:41:00;22.40;;;10.80;;
74543;SDS011;63016;55.030;38.710;2023-09-19T03:43:26;31.35;;;11.40;;
74543;SDS011;63016;55.030;38.710;2023-09-19T03:45:52;39.80;;;11.32;;
74543;SDS011;63016;55.030;38.710;2023-09-19T03:48:20;30.92;;;11.20;;
74543;SDS011;63016;55.030;38.710;2023-09-19T03:50:47;30.08;;;11.55;;
74543;SDS011;63016;55.030;38.710;2023-09-19T03:53:12;24.70;;;10.45;;
74543;SDS011;63016;55.030;38.710;2023-09-19T03:55:38;25.85;;;10.50;;
74543;SDS011;63016;55.030;38.710;2023-09-19T03:58:05;22.08;;;10.20;;
74543;SDS011;63016;55.030;38.710;2023-09-19T04:00:31;28.52;;;11.02;;
74543;SDS011;63016;55.030;38.710;2023-09-19T04:02:57;25.08;;;10.15;;
74543;SDS011;63016;55.030;38.710;2023-09-19T04:05:23;25.63;;;10.38;;
74543;SDS011;63016;55.030;38.710;2023-09-19T04:07:49;22.23;;;9.50;;
74543;SDS011;63016;55.030;38.710;2023-09-19T04:10:15;25.05;;;9.75;;
74543;SDS011;63016;55.030;38.710;2023-09-19T04:12:41;26.30;;;9.32;;
74543;SDS011;63016;55.030;38.710;2023-09-19T04:15:16;24.00;;;9.68;;
74543;SDS011;63016;55.030;38.710;2023-09-19T04:17:41;21.98;;;10.10;;
74543;SDS011;63016;55.030;38.710;2023-09-19T04:20:07;17.90;;;9.05;;
74543;SDS011;63016;55.030;38.710;2023-09-19T04:22:33;22.10;;;10.02;;
74543;SDS011;63016;55.030;38.710;2023-09-19T04:24:58;18.35;;;9.40;;
74543;SDS011;63016;55.030;38.710;2023-09-19T04:27:24;18.75;;;9.98;;
74543;SDS011;63016;55.030;38.710;2023-09-19T04:29:50;18.65;;;9.85;;
74543;SDS011;63016;55.030;38.710;2023-09-19T04:32:18;16.13;;;9.38;;
74543;SDS011;63016;55.030;38.710;2023-09-19T04:34:43;17.50;;;9.50;;
74543;SDS011;63016;55.030;38.710;2023-09-19T04:37:09;16.30;;;9.45;;
74543;SDS011;63016;55.030;38.710;2023-09-19T04:39:34;16.48;;;9.23;;
74543;SDS011;63016;55.030;38.710;2023-09-19T04:41:59;18.85;;;9.48;;
74543;SDS011;63016;55.030;38.710;2023-09-19T04:44:25;15.20;;;8.40;;
74543;SDS011;63016;55.030;38.710;2023-09-19T04:46:50;15.70;;;9.10;;
74543;SDS011;63016;55.030;38.710;2023-09-19T04:49:16;16.45;;;9.32;;
74543;SDS011;63016;55.030;38.710;2023-09-19T04:51:42;19.98;;;9.68;;
74543;SDS011;63016;55.030;38.710;2023-09-19T04:54:08;16.58;;;9.10;;
74543;SDS011;63016;55.030;38.710;2023-09-19T04:56:34;16.95;;;9.18;;
74543;SDS011;63016;55.030;38.710;2023-09-19T04:58:59;15.82;;;9.32;;
74543;SDS011;63016;55.030;38.710;2023-09-19T05:01:25;16.40;;;9.85;;
74543;SDS011;63016;55.030;38.710;2023-09-19T05:03:51;15.45;;;9.18;;
74543;SDS011;63016;55.030;38.710;2023-09-19T05:06:20;16.00;;;9.05;;
74543;SDS011;63016;55.030;38.710;2023-09-19T05:08:46;16.35;;;8.85;;
74543;SDS011;63016;55.030;38.710;2023-09-19T05:11:16;17.75;;;9.65;;
74543;SDS011;63016;55.030;38.710;2023-09-19T05:13:42;13.93;;;9.25;;
74543;SDS011;63016;55.030;38.710;2023-09-19T05:16:08;17.35;;;9.60;;
74543;SDS011;63016;55.030;38.710;2023-09-19T05:18:35;17.15;;;9.63;;
74543;SDS011;63016;55.030;38.710;2023-09-19T05:21:04;14.02;;;8.82;;
74543;SDS011;63016;55.030;38.710;2023-09-19T05:23:29;14.32;;;8.40;;
74543;SDS011;63016;55.030;38.710;2023-09-19T05:25:56;15.80;;;8.90;;
74543;SDS011;63016;55.030;38.710;2023-09-19T05:28:25;14.30;;;8.63;;
74543;SDS011;63016;55.030;38.710;2023-09-19T05:30:51;13.63;;;8.77;;
74543;SDS011;63016;55.030;38.710;2023-09-19T05:33:18;14.25;;;9.20;;
74543;SDS011;63016;55.030;38.710;2023-09-19T05:35:44;13.55;;;8.82;;
74543;SDS011;63016;55.030;38.710;2023-09-19T05:38:11;16.40;;;9.75;;
74543;SDS011;63016;55.030;38.710;2023-09-19T05:40:38;13.88;;;8.88;;
74543;SDS011;63016;55.030;38.710;2023-09-19T05:43:08;14.68;;;9.23;;
74543;SDS011;63016;55.030;38.710;2023-09-19T05:45:34;16.83;;;10.23;;
74543;SDS011;63016;55.030;38.710;2023-09-19T05:48:07;24.80;;;9.48;;
74543;SDS011;63016;55.030;38.710;2023-09-19T05:50:34;15.13;;;10.18;;
74543;SDS011;63016;55.030;38.710;2023-09-19T05:52:59;14.18;;;9.25;;
74543;SDS011;63016;55.030;38.710;2023-09-19T05:55:25;15.60;;;9.80;;
74543;SDS011;63016;55.030;38.710;2023-09-19T05:57:51;15.70;;;9.90;;
74543;SDS011;63016;55.030;38.710;2023-09-19T06:00:18;15.52;;;9.68;;
74543;SDS011;63016;55.030;38.710;2023-09-19T06:02:48;15.52;;;9.02;;
74543;SDS011;63016;55.030;38.710;2023-09-19T06:05:17;14.68;;;9.55;;
74543;SDS011;63016;55.030;38.710;2023-09-19T06:07:43;13.23;;;8.85;;
74543;SDS011;63016;55.030;38.710;2023-09-19T06:10:09;14.40;;;9.02;;
74543;SDS011;63016;55.030;38.710;2023-09-19T06:12:44;12.73;;;8.75;;
74543;SDS011;63016;55.030;38.710;2023-09-19T06:15:10;13.90;;;8.95;;
74543;SDS011;63016;55.030;38.710;2023-09-19T06:17:48;13.38;;;9.23;;
74543;SDS011;63016;55.030;38.710;2023-09-19T06:20:15;15.20;;;9.73;;
74543;SDS011;63016;55.030;38.710;2023-09-19T06:22:42;14.88;;;9.68;;
74543;SDS011;63016;55.030;38.710;2023-09-19T06:25:09;14.25;;;9.05;;
74543;SDS011;63016;55.030;38.710;2023-09-19T06:27:44;15.93;;;8.95;;
74543;SDS011;63016;55.030;38.710;2023-09-19T06:30:10;17.45;;;9.38;;
74543;SDS011;63016;55.030;38.710;2023-09-19T06:32:39;14.20;;;9.25;;
74543;SDS011;63016;55.030;38.710;2023-09-19T06:35:09;14.45;;;9.07;;
74543;SDS011;63016;55.030;38.710;2023-09-19T06:37:39;15.18;;;9.73;;
74543;SDS011;63016;55.030;38.710;2023-09-19T06:40:09;14.70;;;9.35;;
74543;SDS011;63016;55.030;38.710;2023-09-19T06:42:46;13.98;;;9.60;;
74543;SDS011;63016;55.030;38.710;2023-09-19T06:45:14;14.07;;;9.38;;
74543;SDS011;63016;55.030;38.710;2023-09-19T06:47:44;14.05;;;9.30;;
74543;SDS011;63016;55.030;38.710;2023-09-19T06:50:20;14.60;;;9.73;;
74543;SDS011;63016;55.030;38.710;2023-09-19T06:52:50;15.68;;;9.50;;
74543;SDS011;63016;55.030;38.710;2023-09-19T06:55:18;14.10;;;9.43;;
74543;SDS011;63016;55.030;38.710;2023-09-19T06:57:48;13.30;;;9.82;;
74543;SDS011;63016;55.030;38.710;2023-09-19T07:00:14;13.73;;;8.80;;
74543;SDS011;63016;55.030;38.710;2023-09-19T07:02:41;14.40;;;9.30;;
74543;SDS011;63016;55.030;38.710;2023-09-19T07:05:07;14.13;;;8.75;;
74543;SDS011;63016;55.030;38.710;2023-09-19T07:07:33;13.82;;;9.45;;
74543;SDS011;63016;55.030;38.710;2023-09-19T07:10:02;13.23;;;8.85;;
74543;SDS011;63016;55.030;38.710;2023-09-19T07:12:30;12.30;;;8.02;;
74543;SDS011;63016;55.030;38.710;2023-09-19T07:14:57;13.55;;;8.40;;
74543;SDS011;63016;55.030;38.710;2023-09-19T07:17:23;13.55;;;8.80;;
74543;SDS011;63016;55.030;38.710;2023-09-19T07:19:52;13.02;;;8.70;;
74543;SDS011;63016;55.030;38.710;2023-09-19T07:22:18;15.68;;;8.85;;
74543;SDS011;63016;55.030;38.710;2023-09-19T07:24:43;15.05;;;8.50;;
74543;SDS011;63016;55.030;38.710;2023-09-19T07:27:09;17.63;;;8.50;;
74543;SDS011;63016;55.030;38.710;2023-09-19T07:29:34;14.15;;;8.35;;
74543;SDS011;63016;55.030;38.710;2023-09-19T07:32:00;12.48;;;8.90;;
74543;SDS011;63016;55.030;38.710;2023-09-19T07:34:25;11.32;;;8.02;;
74543;SDS011;63016;55.030;38.710;2023-09-19T07:36:51;12.27;;;8.63;;
74543;SDS011;63016;55.030;38.710;2023-09-19T07:39:16;12.57;;;8.80;;
74543;SDS011;63016;55.030;38.710;2023-09-19T07:41:42;14.68;;;8.98;;
74543;SDS011;63016;55.030;38.710;2023-09-19T07:44:08;14.05;;;9.90;;
74543;SDS011;63016;55.030;38.710;2023-09-19T07:46:36;15.15;;;9.55;;
74543;SDS011;63016;55.030;38.710;2023-09-19T07:49:01;13.48;;;9.55;;
74543;SDS011;63016;55.030;38.710;2023-09-19T07:51:27;14.90;;;8.55;;
74543;SDS011;63016;55.030;38.710;2023-09-19T07:53:53;14.32;;;8.65;;
74543;SDS011;63016;55.030;38.710;2023-09-19T07:56:19;13.90;;;9.98;;
74543;SDS011;63016;55.030;38.710;2023-09-19T07:58:45;14.25;;;9.68;;
74543;SDS011;63016;55.030;38.710;2023-09-19T08:01:19;16.40;;;10.18;;
74543;SDS011;63016;55.030;38.710;2023-09-19T08:03:45;16.58;;;10.35;;
74543;SDS011;63016;55.030;38.710;2023-09-19T08:06:13;16.73;;;10.15;;
74543;SDS011;63016;55.030;38.710;2023-09-19T08:08:39;15.27;;;9.65;;
74543;SDS011;63016;55.030;38.710;2023-09-19T08:11:08;14.40;;;9.35;;
74543;SDS011;63016;55.030;38.710;2023-09-19T08:13:38;14.30;;;9.77;;
74543;SDS011;63016;55.030;38.710;2023-09-19T08:16:12;12.52;;;9.45;;
74543;SDS011;63016;55.030;38.710;2023-09-19T08:18:38;15.45;;;9.23;;
74543;SDS011;63016;55.030;38.710;2023-09-19T08:21:06;15.02;;;8.95;;
74543;SDS011;63016;55.030;38.710;2023-09-19T08:23:36;13.13;;;8.50;;
74543;SDS011;63016;55.030;38.710;2023-09-19T08:26:03;14.90;;;7.88;;
74543;SDS011;63016;55.030;38.710;2023-09-19T08:28:33;12.07;;;8.05;;
74543;SDS011;63016;55.030;38.710;2023-09-19T08:31:02;16.02;;;9.35;;
74543;SDS011;63016;55.030;38.710;2023-09-19T08:33:32;13.27;;;8.85;;
74543;SDS011;63016;55.030;38.710;2023-09-19T08:35:59;12.48;;;8.45;;
74543;SDS011;63016;55.030;38.710;2023-09-19T08:38:25;12.82;;;8.85;;
74543;SDS011;63016;55.030;38.710;2023-09-19T08:40:58;17.08;;;8.98;;
74543;SDS011;63016;55.030;38.710;2023-09-19T08:43:27;13.20;;;8.60;;
74543;SDS011;63016;55.030;38.710;2023-09-19T08:45:56;16.42;;;9.13;;
74543;SDS011;63016;55.030;38.710;2023-09-19T08:48:29;14.90;;;8.82;;
74543;SDS011;63016;55.030;38.710;2023-09-19T08:50:57;14.13;;;8.55;;
74543;SDS011;63016;55.030;38.710;2023-09-19T08:53:32;14.00;;;8.30;;
74543;SDS011;63016;55.030;38.710;2023-09-19T08:56:08;14.90;;;8.73;;
74543;SDS011;63016;55.030;38.710;2023-09-19T08:58:39;14.50;;;8.52;;
74543;SDS011;63016;55.030;38.710;2023-09-19T09:01:15;13.43;;;8.55;;
74543;SDS011;63016;55.030;38.710;2023-09-19T09:03:44;15.57;;;9.10;;
74543;SDS011;63016;55.030;38.710;2023-09-19T09:06:13;15.13;;;8.95;;
74543;SDS011;63016;55.030;38.710;2023-09-19T09:08:41;15.05;;;8.20;;
74543;SDS011;63016;55.030;38.710;2023-09-19T09:11:07;18.38;;;9.93;;
74543;SDS011;63016;55.030;38.710;2023-09-19T09:13:34;13.88;;;8.93;;
74543;SDS011;63016;55.030;38.710;2023-09-19T09:16:04;16.00;;;7.97;;
74543;SDS011;63016;55.030;38.710;2023-09-19T09:18:33;18.13;;;9.43;;
74543;SDS011;63016;55.030;38.710;2023-09-19T09:20:59;14.13;;;8.57;;
74543;SDS011;63016;55.030;38.710;2023-09-19T09:23:26;17.13;;;9.07;;
74543;SDS011;63016;55.030;38.710;2023-09-19T09:25:58;13.85;;;8.95;;
74543;SDS011;63016;55.030;38.710;2023-09-19T09:28:30;15.07;;;8.73;;
74543;SDS011;63016;55.030;38.710;2023-09-19T09:30:58;13.85;;;9.30;;
74543;SDS011;63016;55.030;38.710;2023-09-19T09:33:25;15.88;;;8.38;;
74543;SDS011;63016;55.030;38.710;2023-09-19T09:38:19;12.05;;;8.38;;
74543;SDS011;63016;55.030;38.710;2023-09-19T09:40:46;13.50;;;8.10;;
74543;SDS011;63016;55.030;38.710;2023-09-19T09:43:24;16.40;;;8.65;;
74543;SDS011;63016;55.030;38.710;2023-09-19T09:48:56;14.27;;;8.60;;
74543;SDS011;63016;55.030;38.710;2023-09-19T09:52:24;12.05;;;8.35;;
74543;SDS011;63016;55.030;38.710;2023-09-19T09:55:00;16.15;;;8.43;;
74543;SDS011;63016;55.030;38.710;2023-09-19T09:57:32;13.63;;;8.40;;
74543;SDS011;63016;55.030;38.710;2023-09-19T09:59:59;15.18;;;8.40;;
74543;SDS011;63016;55.030;38.710;2023-09-19T10:02:38;12.45;;;8.18;;
74543;SDS011;63016;55.030;38.710;2023-09-19T10:05:20;11.85;;;7.90;;
74543;SDS011;63016;55.030;38.710;2023-09-19T10:07:52;13.05;;;7.65;;
74543;SDS011;63016;55.030;38.710;2023-09-19T10:10:40;12.88;;;8.27;;
74543;SDS011;63016;55.030;38.710;2023-09-19T10:13:06;15.20;;;8.85;;
74543;SDS011;63016;55.030;38.710;2023-09-19T10:15:44;12.88;;;7.90;;
74543;SDS011;63016;55.030;38.710;2023-09-19T10:18:26;11.50;;;7.03;;
74543;SDS011;63016;55.030;38.710;2023-09-19T10:21:01;12.70;;;7.38;;
74543;SDS011;63016;55.030;38.710;2023-09-19T10:23:32;13.93;;;7.72;;
74543;SDS011;63016;55.030;38.710;2023-09-19T10:26:02;11.32;;;7.10;;
74543;SDS011;63016;55.030;38.710;2023-09-19T10:28:34;11.15;;;6.72;;
74543;SDS011;63016;55.030;38.710;2023-09-19T10:31:03;11.48;;;7.00;;
74543;SDS011;63016;55.030;38.710;2023-09-19T10:33:39;10.15;;;7.45;;
74543;SDS011;63016;55.030;38.710;2023-09-19T10:36:11;9.45;;;7.18;;
74543;SDS011;63016;55.030;38.710;2023-09-19T10:38:43;10.52;;;6.85;;
74543;SDS011;63016;55.030;38.710;2023-09-19T10:41:11;8.80;;;6.75;;
74543;SDS011;63016;55.030;38.710;2023-09-19T10:43:41;11.55;;;7.00;;
74543;SDS011;63016;55.030;38.710;2023-09-19T10:46:11;13.48;;;7.32;;
74543;SDS011;63016;55.030;38.710;2023-09-19T10:48:40;9.98;;;7.22;;
74543;SDS011;63016;55.030;38.710;2023-09-19T10:51:14;10.00;;;7.10;;
74543;SDS011;63016;55.030;38.710;2023-09-19T10:56:16;9.77;;;6.82;;
74543;SDS011;63016;55.030;38.710;2023-09-19T10:58:46;11.70;;;6.88;;
74543;SDS011;63016;55.030;38.710;2023-09-19T11:01:45;12.55;;;7.03;;
74543;SDS011;63016;55.030;38.710;2023-09-19T11:04:32;10.50;;;6.88;;
74543;SDS011;63016;55.030;38.710;2023-09-19T11:09:46;12.85;;;7.43;;
74543;SDS011;63016;55.030;38.710;2023-09-19T11:14:59;13.13;;;7.25;;
74543;SDS011;63016;55.030;38.710;2023-09-19T11:17:32;13.65;;;7.18;;
74543;SDS011;63016;55.030;38.710;2023-09-19T11:26:04;13.77;;;6.95;;
74543;SDS011;63016;55.030;38.710;2023-09-19T11:28:27;15.43;;;6.70;;
74543;SDS011;63016;55.030;38.710;2023-09-19T11:31:00;14.35;;;6.75;;
74543;SDS011;63016;55.030;38.710;2023-09-19T11:42:43;11.65;;;7.60;;
74543;SDS011;63016;55.030;38.710;2023-09-19T11:48:23;15.30;;;7.40;;
74543;SDS011;63016;55.030;38.710;2023-09-19T11:50:58;13.55;;;7.68;;
74543;SDS011;63016;55.030;38.710;2023-09-19T11:53:33;13.70;;;7.15;;
74543;SDS011;63016;55.030;38.710;2023-09-19T11:56:02;13.95;;;7.35;;
74543;SDS011;63016;55.030;38.710;2023-09-19T11:58:35;10.68;;;6.90;;
74543;SDS011;63016;55.030;38.710;2023-09-19T12:01:05;9.30;;;6.93;;
74543;SDS011;63016;55.030;38.710;2023-09-19T12:03:45;12.18;;;7.03;;
74543;SDS011;63016;55.030;38.710;2023-09-19T12:06:15;14.38;;;7.60;;
74543;SDS011;63016;55.030;38.710;2023-09-19T12:08:50;9.65;;;6.65;;
74543;SDS011;63016;55.030;38.710;2023-09-19T12:11:20;14.65;;;7.90;;
74543;SDS011;63016;55.030;38.710;2023-09-19T12:13:50;12.30;;;7.33;;
74543;SDS011;63016;55.030;38.710;2023-09-19T12:16:19;13.88;;;6.88;;
74543;SDS011;63016;55.030;38.710;2023-09-19T12:18:54;14.85;;;7.70;;
74543;SDS011;63016;55.030;38.710;2023-09-19T12:23:58;11.07;;;7.57;;
74543;SDS011;63016;55.030;38.710;2023-09-19T12:26:28;9.60;;;7.60;;
74543;SDS011;63016;55.030;38.710;2023-09-19T12:29:32;12.15;;;7.38;;
74543;SDS011;63016;55.030;38.710;2023-09-19T12:32:08;13.50;;;7.30;;
74543;SDS011;63016;55.030;38.710;2023-09-19T12:34:49;12.13;;;6.88;;
74543;SDS011;63016;55.030;38.710;2023-09-19T12:37:19;13.82;;;7.60;;
74543;SDS011;63016;55.030;38.710;2023-09-19T12:40:05;11.38;;;7.10;;
74543;SDS011;63016;55.030;38.710;2023-09-19T12:42:45;19.02;;;7.00;;
74543;SDS011;63016;55.030;38.710;2023-09-19T12:45:15;12.63;;;6.93;;
74543;SDS011;63016;55.030;38.710;2023-09-19T12:51:01;13.63;;;8.63;;
74543;SDS011;63016;55.030;38.710;2023-09-19T12:53:56;14.57;;;7.78;;
74543;SDS011;63016;55.030;38.710;2023-09-19T12:56:30;10.10;;;6.50;;
74543;SDS011;63016;55.030;38.710;2023-09-19T12:59:10;10.30;;;6.72;;
74543;SDS011;63016;55.030;38.710;2023-09-19T13:01:38;13.55;;;7.20;;
74543;SDS011;63016;55.030;38.710;2023-09-19T13:04:20;13.45;;;7.07;;
74543;SDS011;63016;55.030;38.710;2023-09-19T13:06:55;14.60;;;7.38;;
74543;SDS011;63016;55.030;38.710;2023-09-19T13:09:26;14.82;;;7.30;;
74543;SDS011;63016;55.030;38.710;2023-09-19T13:12:34;10.98;;;7.00;;
74543;SDS011;63016;55.030;38.710;2023-09-19T13:15:15;8.07;;;6.65;;
74543;SDS011;63016;55.030;38.710;2023-09-19T13:17:54;15.00;;;7.00;;
74543;SDS011;63016;55.030;38.710;2023-09-19T13:20:25;11.07;;;6.90;;
74543;SDS011;63016;55.030;38.710;2023-09-19T13:22:57;13.80;;;7.07;;
74543;SDS011;63016;55.030;38.710;2023-09-19T13:25:33;11.10;;;7.32;;
74543;SDS011;63016;55.030;38.710;2023-09-19T13:28:00;16.75;;;7.18;;
74543;SDS011;63016;55.030;38.710;2023-09-19T13:30:30;12.85;;;7.57;;
74543;SDS011;63016;55.030;38.710;2023-09-19T13:33:05;12.07;;;6.85;;
74543;SDS011;63016;55.030;38.710;2023-09-19T13:35:35;12.63;;;7.00;;
74543;SDS011;63016;55.030;38.710;2023-09-19T13:38:07;8.55;;;6.88;;
74543;SDS011;63016;55.030;38.710;2023-09-19T13:40:54;15.15;;;7.40;;
74543;SDS011;63016;55.030;38.710;2023-09-19T13:43:22;12.85;;;7.28;;
74543;SDS011;63016;55.030;38.710;2023-09-19T13:45:53;12.80;;;7.85;;
74543;SDS011;63016;55.030;38.710;2023-09-19T13:48:22;11.98;;;7.18;;
74543;SDS011;63016;55.030;38.710;2023-09-19T13:50:55;14.52;;;7.50;;
74543;SDS011;63016;55.030;38.710;2023-09-19T13:53:23;12.38;;;6.95;;
74543;SDS011;63016;55.030;38.710;2023-09-19T13:55:52;10.27;;;7.47;;
74543;SDS011;63016;55.030;38.710;2023-09-19T13:58:18;11.30;;;7.65;;
74543;SDS011;63016;55.030;38.710;2023-09-19T14:00:44;12.27;;;7.38;;
74543;SDS011;63016;55.030;38.710;2023-09-19T14:03:12;11.20;;;7.10;;
74543;SDS011;63016;55.030;38.710;2023-09-19T14:05:38;13.93;;;7.43;;
74543;SDS011;63016;55.030;38.710;2023-09-19T14:08:04;9.32;;;7.13;;
74543;SDS011;63016;55.030;38.710;2023-09-19T14:10:30;10.48;;;7.05;;
74543;SDS011;63016;55.030;38.710;2023-09-19T14:12:57;10.38;;;7.38;;
74543;SDS011;63016;55.030;38.710;2023-09-19T14:15:24;10.85;;;6.97;;
74543;SDS011;63016;55.030;38.710;2023-09-19T14:17:55;12.02;;;7.72;;
74543;SDS011;63016;55.030;38.710;2023-09-19T14:20:25;14.20;;;8.32;;
74543;SDS011;63016;55.030;38.710;2023-09-19T14:22:54;12.13;;;7.82;;
74543;SDS011;63016;55.030;38.710;2023-09-19T14:25:27;13.20;;;7.70;;
74543;SDS011;63016;55.030;38.710;2023-09-19T14:27:57;10.25;;;7.28;;
74543;SDS011;63016;55.030;38.710;2023-09-19T14:30:25;11.10;;;7.47;;
74543;SDS011;63016;55.030;38.710;2023-09-19T14:32:56;8.95;;;7.40;;
74543;SDS011;63016;55.030;38.710;2023-09-19T14:35:23;17.30;;;7.68;;
74543;SDS011;63016;55.030;38.710;2023-09-19T14:37:48;13.63;;;7.75;;
74543;SDS011;63016;55.030;38.710;2023-09-19T14:40:14;9.93;;;7.70;;
74543;SDS011;63016;55.030;38.710;2023-09-19T14:42:43;13.77;;;7.35;;
74543;SDS011;63016;55.030;38.710;2023-09-19T14:45:10;10.15;;;7.63;;
74543;SDS011;63016;55.030;38.710;2023-09-19T14:47:36;12.88;;;7.60;;
74543;SDS011;63016;55.030;38.710;2023-09-19T14:50:02;12.82;;;7.57;;
74543;SDS011;63016;55.030;38.710;2023-09-19T14:52:34;14.40;;;7.75;;
74543;SDS011;63016;55.030;38.710;2023-09-19T14:55:01;15.02;;;7.90;;
74543;SDS011;63016;55.030;38.710;2023-09-19T14:57:27;12.38;;;7.45;;
74543;SDS011;63016;55.030;38.710;2023-09-19T14:59:53;14.23;;;7.50;;
74543;SDS011;63016;55.030;38.710;2023-09-19T15:02:19;11.88;;;7.50;;
74543;SDS011;63016;55.030;38.710;2023-09-19T15:04:46;11.70;;;7.50;;
74543;SDS011;63016;55.030;38.710;2023-09-19T15:07:13;12.10;;;8.32;;
74543;SDS011;63016;55.030;38.710;2023-09-19T15:09:42;13.35;;;7.35;;
74543;SDS011;63016;55.030;38.710;2023-09-19T15:12:08;13.00;;;8.00;;
74543;SDS011;63016;55.030;38.710;2023-09-19T15:14:35;10.07;;;7.35;;
74543;SDS011;63016;55.030;38.710;2023-09-19T15:17:01;11.65;;;8.05;;
74543;SDS011;63016;55.030;38.710;2023-09-19T15:19:29;12.85;;;8.07;;
74543;SDS011;63016;55.030;38.710;2023-09-19T15:21:55;13.80;;;7.38;;
74543;SDS011;63016;55.030;38.710;2023-09-19T15:24:23;12.80;;;7.65;;
74543;SDS011;63016;55.030;38.710;2023-09-19T15:26:51;10.20;;;7.78;;
74543;SDS011;63016;55.030;38.710;2023-09-19T15:29:18;9.18;;;7.47;;
74543;SDS011;63016;55.030;38.710;2023-09-19T15:31:45;13.10;;;7.22;;
74543;SDS011;63016;55.030;38.710;2023-09-19T15:34:10;12.57;;;7.68;;